Forside
METAR-TAF:

METAR-TAF

Lufthavne :

Marshfield Municipal Airport

Marshfield, Wisconsin, USA

Breddekreds: 44-38-17N, længdekreds: 090-11-15W, højde: 389 m

Aktuelle vejr

Denne rapport blev lavet for 50 minutter siden, kl. 07:54 UTC
Vind 3 kt fra vest
Temperatur 7°C
Fugtighed 49%
Tryk 1028 hPa
Sigt: 16.1 km
skyfri

METAR: KMFI 130754Z AUTO 27003KT 10SM CLR 07/M03 A3036 RMK AO2 SLP284 T00721028

Tid: 03:44 (08:44 UTC)


TAF: fraværende

Vejrobservationer og prognoser fra mere end 4000 lufthavne (METAR og TAF).

De gule og røde prikker repræsenterer de meteorologiske stationer.

Flyt musen over at se navnet på stationen.

Så klik over at se vejr observationer og prognoser.

At skifte det kort: Klik på de grønne knapper med et sort kors for at zoome ind; på den grønne knap med en bindestreg for at zoome ud; eller på de grønne pile for tilstødende kort.


METAR-TAF: